sensor_id;sensor_type;location;lat;lon;timestamp;P1;durP1;ratioP1;P2;durP2;ratioP2
73642;SDS011;61938;48.652;9.292;2023-05-10T00:01:55;5.78;;;2.90;;
73642;SDS011;61938;48.652;9.292;2023-05-10T00:04:21;4.95;;;2.60;;
73642;SDS011;61938;48.652;9.292;2023-05-10T00:06:46;6.13;;;2.90;;
73642;SDS011;61938;48.652;9.292;2023-05-10T00:09:12;4.47;;;2.72;;
73642;SDS011;61938;48.652;9.292;2023-05-10T00:11:37;4.03;;;2.45;;
73642;SDS011;61938;48.652;9.292;2023-05-10T00:14:03;6.10;;;2.75;;
73642;SDS011;61938;48.652;9.292;2023-05-10T00:16:28;5.78;;;2.40;;
73642;SDS011;61938;48.652;9.292;2023-05-10T00:18:54;5.47;;;2.47;;
73642;SDS011;61938;48.652;9.292;2023-05-10T00:21:19;6.93;;;2.25;;
73642;SDS011;61938;48.652;9.292;2023-05-10T00:23:45;5.25;;;2.22;;
73642;SDS011;61938;48.652;9.292;2023-05-10T00:26:10;2.58;;;2.17;;
73642;SDS011;61938;48.652;9.292;2023-05-10T00:28:36;2.42;;;1.70;;
73642;SDS011;61938;48.652;9.292;2023-05-10T00:31:02;4.43;;;2.00;;
73642;SDS011;61938;48.652;9.292;2023-05-10T00:33:27;2.33;;;1.73;;
73642;SDS011;61938;48.652;9.292;2023-05-10T00:35:53;2.05;;;1.55;;
73642;SDS011;61938;48.652;9.292;2023-05-10T00:38:18;2.63;;;1.35;;
73642;SDS011;61938;48.652;9.292;2023-05-10T00:40:44;4.10;;;1.30;;
73642;SDS011;61938;48.652;9.292;2023-05-10T00:43:10;2.08;;;1.50;;
73642;SDS011;61938;48.652;9.292;2023-05-10T00:45:35;1.35;;;1.10;;
73642;SDS011;61938;48.652;9.292;2023-05-10T00:48:02;4.40;;;1.13;;
73642;SDS011;61938;48.652;9.292;2023-05-10T00:50:28;1.45;;;0.80;;
73642;SDS011;61938;48.652;9.292;2023-05-10T00:52:55;1.05;;;0.60;;
73642;SDS011;61938;48.652;9.292;2023-05-10T00:55:20;2.78;;;0.50;;
73642;SDS011;61938;48.652;9.292;2023-05-10T00:57:46;2.05;;;0.65;;
73642;SDS011;61938;48.652;9.292;2023-05-10T01:00:12;1.85;;;0.30;;
73642;SDS011;61938;48.652;9.292;2023-05-10T01:02:42;0.30;;;0.30;;
73642;SDS011;61938;48.652;9.292;2023-05-10T01:05:09;1.73;;;0.40;;
73642;SDS011;61938;48.652;9.292;2023-05-10T01:07:34;0.90;;;0.47;;
73642;SDS011;61938;48.652;9.292;2023-05-10T01:10:00;4.18;;;0.60;;
73642;SDS011;61938;48.652;9.292;2023-05-10T01:12:26;3.10;;;0.40;;
73642;SDS011;61938;48.652;9.292;2023-05-10T01:14:51;3.33;;;0.65;;
73642;SDS011;61938;48.652;9.292;2023-05-10T01:17:17;1.17;;;0.40;;
73642;SDS011;61938;48.652;9.292;2023-05-10T01:19:44;0.68;;;0.30;;
73642;SDS011;61938;48.652;9.292;2023-05-10T01:25:09;0.60;;;0.40;;
73642;SDS011;61938;48.652;9.292;2023-05-10T01:27:41;2.83;;;0.52;;
73642;SDS011;61938;48.652;9.292;2023-05-10T01:30:48;0.20;;;0.20;;
73642;SDS011;61938;48.652;9.292;2023-05-10T01:33:39;0.20;;;0.20;;
73642;SDS011;61938;48.652;9.292;2023-05-10T01:36:58;1.15;;;0.40;;
73642;SDS011;61938;48.652;9.292;2023-05-10T01:39:11;0.40;;;0.22;;
73642;SDS011;61938;48.652;9.292;2023-05-10T01:41:51;1.02;;;0.38;;
73642;SDS011;61938;48.652;9.292;2023-05-10T01:47:12;0.30;;;0.25;;
73642;SDS011;61938;48.652;9.292;2023-05-10T01:49:43;1.00;;;0.40;;
73642;SDS011;61938;48.652;9.292;2023-05-10T01:52:15;6.88;;;0.73;;
73642;SDS011;61938;48.652;9.292;2023-05-10T01:54:45;0.90;;;0.60;;
73642;SDS011;61938;48.652;9.292;2023-05-10T01:57:18;1.00;;;0.60;;
73642;SDS011;61938;48.652;9.292;2023-05-10T01:59:45;0.47;;;0.38;;
73642;SDS011;61938;48.652;9.292;2023-05-10T02:02:14;6.55;;;0.60;;
73642;SDS011;61938;48.652;9.292;2023-05-10T02:04:42;0.68;;;0.50;;
73642;SDS011;61938;48.652;9.292;2023-05-10T02:07:08;1.58;;;0.60;;
73642;SDS011;61938;48.652;9.292;2023-05-10T02:09:36;4.68;;;0.70;;
73642;SDS011;61938;48.652;9.292;2023-05-10T02:12:03;2.58;;;0.30;;
73642;SDS011;61938;48.652;9.292;2023-05-10T02:14:32;0.90;;;0.52;;
73642;SDS011;61938;48.652;9.292;2023-05-10T02:17:02;3.35;;;0.63;;
73642;SDS011;61938;48.652;9.292;2023-05-10T02:19:29;0.50;;;0.50;;
73642;SDS011;61938;48.652;9.292;2023-05-10T02:21:57;2.08;;;0.40;;
73642;SDS011;61938;48.652;9.292;2023-05-10T02:24:24;0.57;;;0.32;;
73642;SDS011;61938;48.652;9.292;2023-05-10T02:26:51;1.30;;;0.55;;
73642;SDS011;61938;48.652;9.292;2023-05-10T02:29:20;2.75;;;0.47;;
73642;SDS011;61938;48.652;9.292;2023-05-10T02:31:48;1.73;;;0.50;;
73642;SDS011;61938;48.652;9.292;2023-05-10T02:34:16;3.15;;;1.13;;
73642;SDS011;61938;48.652;9.292;2023-05-10T02:36:42;0.47;;;0.40;;
73642;SDS011;61938;48.652;9.292;2023-05-10T02:39:08;1.25;;;0.65;;
73642;SDS011;61938;48.652;9.292;2023-05-10T02:41:37;0.93;;;0.43;;
73642;SDS011;61938;48.652;9.292;2023-05-10T02:44:03;0.90;;;0.60;;
73642;SDS011;61938;48.652;9.292;2023-05-10T02:46:32;0.60;;;0.30;;
73642;SDS011;61938;48.652;9.292;2023-05-10T02:48:58;0.60;;;0.50;;
73642;SDS011;61938;48.652;9.292;2023-05-10T02:51:25;6.10;;;0.80;;
73642;SDS011;61938;48.652;9.292;2023-05-10T02:54:01;0.70;;;0.50;;
73642;SDS011;61938;48.652;9.292;2023-05-10T02:56:34;1.08;;;0.52;;
73642;SDS011;61938;48.652;9.292;2023-05-10T02:59:04;1.02;;;0.40;;
73642;SDS011;61938;48.652;9.292;2023-05-10T03:01:29;1.88;;;0.57;;
73642;SDS011;61938;48.652;9.292;2023-05-10T03:03:55;4.72;;;0.68;;
73642;SDS011;61938;48.652;9.292;2023-05-10T03:06:21;2.05;;;0.40;;
73642;SDS011;61938;48.652;9.292;2023-05-10T03:08:46;1.00;;;0.60;;
73642;SDS011;61938;48.652;9.292;2023-05-10T03:11:24;0.80;;;0.40;;
73642;SDS011;61938;48.652;9.292;2023-05-10T03:17:05;1.48;;;0.80;;
73642;SDS011;61938;48.652;9.292;2023-05-10T03:19:39;1.42;;;0.65;;
73642;SDS011;61938;48.652;9.292;2023-05-10T03:22:21;1.52;;;1.00;;
73642;SDS011;61938;48.652;9.292;2023-05-10T03:24:56;1.25;;;0.57;;
73642;SDS011;61938;48.652;9.292;2023-05-10T03:27:23;6.47;;;0.90;;
73642;SDS011;61938;48.652;9.292;2023-05-10T03:29:50;4.15;;;1.00;;
73642;SDS011;61938;48.652;9.292;2023-05-10T03:32:17;1.10;;;0.70;;
73642;SDS011;61938;48.652;9.292;2023-05-10T03:34:43;1.02;;;0.70;;
73642;SDS011;61938;48.652;9.292;2023-05-10T03:37:08;1.30;;;0.80;;
73642;SDS011;61938;48.652;9.292;2023-05-10T03:39:34;1.60;;;0.73;;
73642;SDS011;61938;48.652;9.292;2023-05-10T03:42:00;4.20;;;0.80;;
73642;SDS011;61938;48.652;9.292;2023-05-10T03:44:25;1.65;;;1.00;;
73642;SDS011;61938;48.652;9.292;2023-05-10T03:46:51;1.52;;;0.75;;
73642;SDS011;61938;48.652;9.292;2023-05-10T03:49:16;1.58;;;0.82;;
73642;SDS011;61938;48.652;9.292;2023-05-10T03:51:42;0.80;;;0.68;;
73642;SDS011;61938;48.652;9.292;2023-05-10T03:54:07;2.42;;;0.70;;
73642;SDS011;61938;48.652;9.292;2023-05-10T03:56:33;11.85;;;1.10;;
73642;SDS011;61938;48.652;9.292;2023-05-10T03:58:58;1.42;;;0.77;;
73642;SDS011;61938;48.652;9.292;2023-05-10T04:01:24;1.48;;;1.08;;
73642;SDS011;61938;48.652;9.292;2023-05-10T04:03:49;4.63;;;1.00;;
73642;SDS011;61938;48.652;9.292;2023-05-10T04:06:15;2.33;;;0.85;;
73642;SDS011;61938;48.652;9.292;2023-05-10T04:08:40;3.10;;;0.98;;
73642;SDS011;61938;48.652;9.292;2023-05-10T04:11:07;1.75;;;1.00;;
73642;SDS011;61938;48.652;9.292;2023-05-10T04:13:33;5.18;;;1.50;;
73642;SDS011;61938;48.652;9.292;2023-05-10T04:15:59;3.30;;;1.60;;
73642;SDS011;61938;48.652;9.292;2023-05-10T04:18:25;1.70;;;1.05;;
73642;SDS011;61938;48.652;9.292;2023-05-10T04:20:50;4.07;;;1.35;;
73642;SDS011;61938;48.652;9.292;2023-05-10T04:23:16;2.85;;;1.35;;
73642;SDS011;61938;48.652;9.292;2023-05-10T04:25:42;2.20;;;1.40;;
73642;SDS011;61938;48.652;9.292;2023-05-10T04:28:07;1.63;;;1.10;;
73642;SDS011;61938;48.652;9.292;2023-05-10T04:30:33;1.50;;;1.20;;
73642;SDS011;61938;48.652;9.292;2023-05-10T04:32:59;1.67;;;0.93;;
73642;SDS011;61938;48.652;9.292;2023-05-10T04:35:26;2.22;;;0.98;;
73642;SDS011;61938;48.652;9.292;2023-05-10T04:37:52;2.20;;;1.10;;
73642;SDS011;61938;48.652;9.292;2023-05-10T04:40:17;1.98;;;0.90;;
73642;SDS011;61938;48.652;9.292;2023-05-10T04:42:43;5.15;;;1.65;;
73642;SDS011;61938;48.652;9.292;2023-05-10T04:45:09;4.10;;;1.45;;
73642;SDS011;61938;48.652;9.292;2023-05-10T04:47:35;1.65;;;1.02;;
73642;SDS011;61938;48.652;9.292;2023-05-10T04:50:01;3.60;;;1.30;;
73642;SDS011;61938;48.652;9.292;2023-05-10T04:52:28;1.70;;;1.17;;
73642;SDS011;61938;48.652;9.292;2023-05-10T04:54:54;2.80;;;1.40;;
73642;SDS011;61938;48.652;9.292;2023-05-10T04:57:19;1.77;;;1.20;;
73642;SDS011;61938;48.652;9.292;2023-05-10T04:59:45;3.75;;;1.20;;
73642;SDS011;61938;48.652;9.292;2023-05-10T05:02:10;4.13;;;1.20;;
73642;SDS011;61938;48.652;9.292;2023-05-10T05:04:36;2.17;;;1.40;;
73642;SDS011;61938;48.652;9.292;2023-05-10T05:07:01;1.63;;;1.27;;
73642;SDS011;61938;48.652;9.292;2023-05-10T05:09:27;2.42;;;1.40;;
73642;SDS011;61938;48.652;9.292;2023-05-10T05:11:52;2.28;;;1.30;;
73642;SDS011;61938;48.652;9.292;2023-05-10T05:14:18;2.63;;;1.52;;
73642;SDS011;61938;48.652;9.292;2023-05-10T05:16:45;1.73;;;1.27;;
73642;SDS011;61938;48.652;9.292;2023-05-10T05:19:11;3.67;;;1.85;;
73642;SDS011;61938;48.652;9.292;2023-05-10T05:21:37;1.70;;;1.25;;
73642;SDS011;61938;48.652;9.292;2023-05-10T05:24:02;5.63;;;1.40;;
73642;SDS011;61938;48.652;9.292;2023-05-10T05:26:28;2.03;;;1.13;;
73642;SDS011;61938;48.652;9.292;2023-05-10T05:28:54;2.53;;;1.70;;
73642;SDS011;61938;48.652;9.292;2023-05-10T05:31:20;2.95;;;1.58;;
73642;SDS011;61938;48.652;9.292;2023-05-10T05:33:45;6.40;;;1.60;;
73642;SDS011;61938;48.652;9.292;2023-05-10T05:36:11;5.95;;;2.00;;
73642;SDS011;61938;48.652;9.292;2023-05-10T05:38:37;2.30;;;1.50;;
73642;SDS011;61938;48.652;9.292;2023-05-10T05:41:02;3.90;;;1.30;;
73642;SDS011;61938;48.652;9.292;2023-05-10T05:43:28;4.97;;;1.85;;
73642;SDS011;61938;48.652;9.292;2023-05-10T05:45:53;4.97;;;1.85;;
73642;SDS011;61938;48.652;9.292;2023-05-10T05:48:19;2.90;;;1.70;;
73642;SDS011;61938;48.652;9.292;2023-05-10T05:50:45;4.43;;;1.90;;
73642;SDS011;61938;48.652;9.292;2023-05-10T05:53:11;2.53;;;1.73;;
73642;SDS011;61938;48.652;9.292;2023-05-10T05:55:37;4.20;;;1.80;;
73642;SDS011;61938;48.652;9.292;2023-05-10T05:58:02;5.60;;;1.98;;
73642;SDS011;61938;48.652;9.292;2023-05-10T06:00:28;4.45;;;1.80;;
73642;SDS011;61938;48.652;9.292;2023-05-10T06:02:53;6.57;;;1.77;;
73642;SDS011;61938;48.652;9.292;2023-05-10T06:05:19;6.70;;;3.00;;
73642;SDS011;61938;48.652;9.292;2023-05-10T06:07:45;4.82;;;2.20;;
73642;SDS011;61938;48.652;9.292;2023-05-10T06:10:11;2.72;;;1.77;;
73642;SDS011;61938;48.652;9.292;2023-05-10T06:12:36;7.88;;;2.40;;
73642;SDS011;61938;48.652;9.292;2023-05-10T06:15:02;1.50;;;1.40;;
73642;SDS011;61938;48.652;9.292;2023-05-10T06:17:28;3.33;;;1.95;;
73642;SDS011;61938;48.652;9.292;2023-05-10T06:19:54;2.83;;;1.80;;
73642;SDS011;61938;48.652;9.292;2023-05-10T06:22:20;4.43;;;1.92;;
73642;SDS011;61938;48.652;9.292;2023-05-10T06:24:47;3.95;;;1.65;;
73642;SDS011;61938;48.652;9.292;2023-05-10T06:27:13;3.22;;;1.75;;
73642;SDS011;61938;48.652;9.292;2023-05-10T06:29:38;3.88;;;2.05;;
73642;SDS011;61938;48.652;9.292;2023-05-10T06:32:04;2.42;;;1.73;;
73642;SDS011;61938;48.652;9.292;2023-05-10T06:34:30;2.22;;;1.50;;
73642;SDS011;61938;48.652;9.292;2023-05-10T06:36:55;4.28;;;2.00;;
73642;SDS011;61938;48.652;9.292;2023-05-10T06:39:21;4.25;;;1.60;;
73642;SDS011;61938;48.652;9.292;2023-05-10T06:41:47;7.20;;;1.85;;
73642;SDS011;61938;48.652;9.292;2023-05-10T06:44:12;2.72;;;1.70;;
73642;SDS011;61938;48.652;9.292;2023-05-10T06:46:38;3.17;;;1.63;;
73642;SDS011;61938;48.652;9.292;2023-05-10T06:49:03;5.85;;;1.80;;
73642;SDS011;61938;48.652;9.292;2023-05-10T06:51:29;3.08;;;1.55;;
73642;SDS011;61938;48.652;9.292;2023-05-10T06:53:55;2.47;;;1.50;;
73642;SDS011;61938;48.652;9.292;2023-05-10T06:56:20;4.35;;;1.83;;
73642;SDS011;61938;48.652;9.292;2023-05-10T06:58:47;2.90;;;1.45;;
73642;SDS011;61938;48.652;9.292;2023-05-10T07:01:12;1.90;;;1.42;;
73642;SDS011;61938;48.652;9.292;2023-05-10T07:03:38;3.03;;;1.83;;
73642;SDS011;61938;48.652;9.292;2023-05-10T07:06:03;2.65;;;1.65;;
73642;SDS011;61938;48.652;9.292;2023-05-10T07:08:33;3.20;;;1.88;;
73642;SDS011;61938;48.652;9.292;2023-05-10T07:11:02;3.13;;;1.85;;
73642;SDS011;61938;48.652;9.292;2023-05-10T07:13:29;4.10;;;1.85;;
73642;SDS011;61938;48.652;9.292;2023-05-10T07:15:56;6.00;;;1.77;;
73642;SDS011;61938;48.652;9.292;2023-05-10T07:18:21;3.83;;;1.95;;
73642;SDS011;61938;48.652;9.292;2023-05-10T07:20:47;2.03;;;1.58;;
73642;SDS011;61938;48.652;9.292;2023-05-10T07:23:12;2.53;;;1.52;;
73642;SDS011;61938;48.652;9.292;2023-05-10T07:25:38;2.38;;;1.60;;
73642;SDS011;61938;48.652;9.292;2023-05-10T07:28:03;3.70;;;1.60;;
73642;SDS011;61938;48.652;9.292;2023-05-10T07:30:29;4.32;;;1.60;;
73642;SDS011;61938;48.652;9.292;2023-05-10T07:32:54;2.67;;;1.50;;
73642;SDS011;61938;48.652;9.292;2023-05-10T07:35:20;4.15;;;1.17;;
73642;SDS011;61938;48.652;9.292;2023-05-10T07:37:45;5.18;;;1.60;;
73642;SDS011;61938;48.652;9.292;2023-05-10T07:40:11;2.88;;;1.67;;
73642;SDS011;61938;48.652;9.292;2023-05-10T07:42:36;5.28;;;1.65;;
73642;SDS011;61938;48.652;9.292;2023-05-10T07:45:03;2.75;;;1.38;;
73642;SDS011;61938;48.652;9.292;2023-05-10T07:47:28;3.30;;;1.40;;
73642;SDS011;61938;48.652;9.292;2023-05-10T07:49:54;5.47;;;1.60;;
73642;SDS011;61938;48.652;9.292;2023-05-10T07:52:20;7.00;;;1.60;;
73642;SDS011;61938;48.652;9.292;2023-05-10T07:54:45;5.25;;;1.23;;
73642;SDS011;61938;48.652;9.292;2023-05-10T07:57:11;5.60;;;1.35;;
73642;SDS011;61938;48.652;9.292;2023-05-10T07:59:39;4.03;;;1.25;;
73642;SDS011;61938;48.652;9.292;2023-05-10T08:02:04;1.77;;;1.10;;
73642;SDS011;61938;48.652;9.292;2023-05-10T08:04:30;3.45;;;1.00;;
73642;SDS011;61938;48.652;9.292;2023-05-10T08:06:56;1.52;;;1.10;;
73642;SDS011;61938;48.652;9.292;2023-05-10T08:09:21;1.70;;;1.05;;
73642;SDS011;61938;48.652;9.292;2023-05-10T08:11:48;3.80;;;1.00;;
73642;SDS011;61938;48.652;9.292;2023-05-10T08:14:14;1.45;;;1.08;;
73642;SDS011;61938;48.652;9.292;2023-05-10T08:16:40;1.40;;;1.10;;
73642;SDS011;61938;48.652;9.292;2023-05-10T08:19:05;3.42;;;1.45;;
73642;SDS011;61938;48.652;9.292;2023-05-10T08:21:31;3.70;;;1.20;;
73642;SDS011;61938;48.652;9.292;2023-05-10T08:23:56;2.65;;;1.08;;
73642;SDS011;61938;48.652;9.292;2023-05-10T08:26:22;4.93;;;1.20;;
73642;SDS011;61938;48.652;9.292;2023-05-10T08:28:48;1.98;;;1.10;;
73642;SDS011;61938;48.652;9.292;2023-05-10T08:31:13;1.52;;;1.20;;
73642;SDS011;61938;48.652;9.292;2023-05-10T08:33:39;4.43;;;1.52;;
73642;SDS011;61938;48.652;9.292;2023-05-10T08:36:05;2.13;;;0.98;;
73642;SDS011;61938;48.652;9.292;2023-05-10T08:38:30;2.08;;;1.10;;
73642;SDS011;61938;48.652;9.292;2023-05-10T08:40:56;2.55;;;0.95;;
73642;SDS011;61938;48.652;9.292;2023-05-10T08:43:23;3.40;;;0.77;;
73642;SDS011;61938;48.652;9.292;2023-05-10T08:45:55;3.45;;;0.95;;
73642;SDS011;61938;48.652;9.292;2023-05-10T08:48:22;2.67;;;1.13;;
73642;SDS011;61938;48.652;9.292;2023-05-10T08:50:49;1.65;;;0.85;;
73642;SDS011;61938;48.652;9.292;2023-05-10T08:53:17;1.85;;;1.05;;
73642;SDS011;61938;48.652;9.292;2023-05-10T08:55:44;3.92;;;0.95;;
73642;SDS011;61938;48.652;9.292;2023-05-10T08:58:10;2.72;;;1.00;;
73642;SDS011;61938;48.652;9.292;2023-05-10T09:00:36;2.70;;;0.68;;
73642;SDS011;61938;48.652;9.292;2023-05-10T09:03:02;0.70;;;0.70;;
73642;SDS011;61938;48.652;9.292;2023-05-10T09:05:30;3.22;;;1.20;;
73642;SDS011;61938;48.652;9.292;2023-05-10T09:07:55;1.48;;;0.73;;
73642;SDS011;61938;48.652;9.292;2023-05-10T09:10:21;2.40;;;0.88;;
73642;SDS011;61938;48.652;9.292;2023-05-10T09:12:50;2.00;;;1.00;;
73642;SDS011;61938;48.652;9.292;2023-05-10T09:15:16;1.23;;;0.80;;
73642;SDS011;61938;48.652;9.292;2023-05-10T09:17:44;2.85;;;0.63;;
73642;SDS011;61938;48.652;9.292;2023-05-10T09:20:10;2.17;;;0.63;;
73642;SDS011;61938;48.652;9.292;2023-05-10T09:22:35;1.42;;;0.80;;
73642;SDS011;61938;48.652;9.292;2023-05-10T09:25:09;1.77;;;0.70;;
73642;SDS011;61938;48.652;9.292;2023-05-10T09:27:36;3.00;;;1.10;;
73642;SDS011;61938;48.652;9.292;2023-05-10T09:30:06;1.58;;;0.65;;
73642;SDS011;61938;48.652;9.292;2023-05-10T09:32:38;0.88;;;0.50;;
73642;SDS011;61938;48.652;9.292;2023-05-10T09:35:14;1.73;;;0.70;;
73642;SDS011;61938;48.652;9.292;2023-05-10T09:37:42;0.93;;;0.50;;
73642;SDS011;61938;48.652;9.292;2023-05-10T09:40:13;0.98;;;0.60;;
73642;SDS011;61938;48.652;9.292;2023-05-10T09:42:41;1.65;;;0.50;;
73642;SDS011;61938;48.652;9.292;2023-05-10T09:45:15;0.82;;;0.57;;
73642;SDS011;61938;48.652;9.292;2023-05-10T09:47:40;2.85;;;0.70;;
73642;SDS011;61938;48.652;9.292;2023-05-10T09:50:06;2.40;;;0.60;;
73642;SDS011;61938;48.652;9.292;2023-05-10T09:55:19;1.58;;;0.60;;
73642;SDS011;61938;48.652;9.292;2023-05-10T09:57:46;1.25;;;0.63;;
73642;SDS011;61938;48.652;9.292;2023-05-10T10:00:19;1.08;;;0.63;;
73642;SDS011;61938;48.652;9.292;2023-05-10T10:02:46;0.73;;;0.52;;
73642;SDS011;61938;48.652;9.292;2023-05-10T10:05:27;0.88;;;0.40;;
73642;SDS011;61938;48.652;9.292;2023-05-10T10:07:57;2.58;;;0.77;;
73642;SDS011;61938;48.652;9.292;2023-05-10T10:10:24;1.15;;;0.60;;
73642;SDS011;61938;48.652;9.292;2023-05-10T10:12:50;4.72;;;0.80;;
73642;SDS011;61938;48.652;9.292;2023-05-10T10:15:16;2.08;;;0.65;;
73642;SDS011;61938;48.652;9.292;2023-05-10T10:17:42;3.90;;;0.50;;
73642;SDS011;61938;48.652;9.292;2023-05-10T10:20:08;0.85;;;0.40;;
73642;SDS011;61938;48.652;9.292;2023-05-10T10:22:34;2.70;;;0.68;;
73642;SDS011;61938;48.652;9.292;2023-05-10T10:25:01;5.15;;;0.88;;
73642;SDS011;61938;48.652;9.292;2023-05-10T10:30:13;1.15;;;0.57;;
73642;SDS011;61938;48.652;9.292;2023-05-10T10:35:31;2.25;;;0.60;;
73642;SDS011;61938;48.652;9.292;2023-05-10T10:37:57;2.45;;;1.15;;
73642;SDS011;61938;48.652;9.292;2023-05-10T10:40:23;4.28;;;0.82;;
73642;SDS011;61938;48.652;9.292;2023-05-10T10:42:57;2.10;;;1.02;;
73642;SDS011;61938;48.652;9.292;2023-05-10T10:45:42;1.77;;;0.80;;
73642;SDS011;61938;48.652;9.292;2023-05-10T10:48:24;3.25;;;0.90;;
73642;SDS011;61938;48.652;9.292;2023-05-10T10:50:57;1.50;;;0.70;;
73642;SDS011;61938;48.652;9.292;2023-05-10T10:53:25;0.50;;;0.40;;
73642;SDS011;61938;48.652;9.292;2023-05-10T10:55:55;2.75;;;0.93;;
73642;SDS011;61938;48.652;9.292;2023-05-10T10:58:32;3.75;;;0.70;;
73642;SDS011;61938;48.652;9.292;2023-05-10T11:01:08;2.83;;;0.80;;
73642;SDS011;61938;48.652;9.292;2023-05-10T11:03:37;0.70;;;0.40;;
73642;SDS011;61938;48.652;9.292;2023-05-10T11:06:02;3.90;;;0.50;;
73642;SDS011;61938;48.652;9.292;2023-05-10T11:08:29;1.23;;;0.50;;
73642;SDS011;61938;48.652;9.292;2023-05-10T11:13:40;1.45;;;0.50;;
73642;SDS011;61938;48.652;9.292;2023-05-10T11:16:17;2.40;;;0.77;;
73642;SDS011;61938;48.652;9.292;2023-05-10T11:19:04;0.75;;;0.40;;
73642;SDS011;61938;48.652;9.292;2023-05-10T11:21:49;1.38;;;0.57;;
73642;SDS011;61938;48.652;9.292;2023-05-10T11:26:48;5.82;;;1.27;;
73642;SDS011;61938;48.652;9.292;2023-05-10T11:29:16;1.50;;;0.50;;
73642;SDS011;61938;48.652;9.292;2023-05-10T11:31:45;4.97;;;0.50;;
73642;SDS011;61938;48.652;9.292;2023-05-10T11:34:11;4.05;;;0.70;;
73642;SDS011;61938;48.652;9.292;2023-05-10T11:36:50;4.20;;;0.88;;
73642;SDS011;61938;48.652;9.292;2023-05-10T11:39:18;5.28;;;0.73;;
73642;SDS011;61938;48.652;9.292;2023-05-10T11:41:44;5.18;;;1.13;;
73642;SDS011;61938;48.652;9.292;2023-05-10T11:44:13;3.25;;;1.23;;
73642;SDS011;61938;48.652;9.292;2023-05-10T11:46:39;4.90;;;1.27;;
73642;SDS011;61938;48.652;9.292;2023-05-10T11:49:05;2.55;;;1.13;;
73642;SDS011;61938;48.652;9.292;2023-05-10T11:51:33;5.78;;;1.23;;
73642;SDS011;61938;48.652;9.292;2023-05-10T11:54:05;7.00;;;1.25;;
73642;SDS011;61938;48.652;9.292;2023-05-10T11:56:35;2.13;;;1.30;;
73642;SDS011;61938;48.652;9.292;2023-05-10T11:59:02;1.88;;;1.35;;
73642;SDS011;61938;48.652;9.292;2023-05-10T12:01:28;2.67;;;1.10;;
73642;SDS011;61938;48.652;9.292;2023-05-10T12:03:55;4.45;;;1.20;;
73642;SDS011;61938;48.652;9.292;2023-05-10T12:06:26;2.90;;;1.30;;
73642;SDS011;61938;48.652;9.292;2023-05-10T12:08:53;6.10;;;1.30;;
73642;SDS011;61938;48.652;9.292;2023-05-10T12:11:19;2.22;;;0.77;;
73642;SDS011;61938;48.652;9.292;2023-05-10T12:13:46;2.28;;;1.00;;
73642;SDS011;61938;48.652;9.292;2023-05-10T12:16:19;3.88;;;1.30;;
73642;SDS011;61938;48.652;9.292;2023-05-10T12:18:49;8.00;;;2.10;;
73642;SDS011;61938;48.652;9.292;2023-05-10T12:21:18;2.15;;;1.27;;
73642;SDS011;61938;48.652;9.292;2023-05-10T12:23:45;2.38;;;0.80;;
73642;SDS011;61938;48.652;9.292;2023-05-10T12:26:12;2.25;;;0.80;;
73642;SDS011;61938;48.652;9.292;2023-05-10T12:28:38;2.28;;;1.00;;
73642;SDS011;61938;48.652;9.292;2023-05-10T12:31:06;5.53;;;1.20;;
73642;SDS011;61938;48.652;9.292;2023-05-10T12:33:39;2.63;;;1.10;;
73642;SDS011;61938;48.652;9.292;2023-05-10T12:36:08;3.53;;;0.98;;
73642;SDS011;61938;48.652;9.292;2023-05-10T12:38:35;5.22;;;1.30;;
73642;SDS011;61938;48.652;9.292;2023-05-10T12:41:11;4.82;;;1.27;;
73642;SDS011;61938;48.652;9.292;2023-05-10T12:43:39;4.20;;;1.13;;
73642;SDS011;61938;48.652;9.292;2023-05-10T12:46:12;2.63;;;1.10;;
73642;SDS011;61938;48.652;9.292;2023-05-10T12:48:40;6.28;;;1.00;;
73642;SDS011;61938;48.652;9.292;2023-05-10T12:51:06;4.82;;;1.00;;
73642;SDS011;61938;48.652;9.292;2023-05-10T12:53:34;1.65;;;0.85;;
73642;SDS011;61938;48.652;9.292;2023-05-10T12:56:00;7.22;;;1.50;;
73642;SDS011;61938;48.652;9.292;2023-05-10T12:58:26;5.78;;;1.40;;
73642;SDS011;61938;48.652;9.292;2023-05-10T13:00:51;3.22;;;1.10;;
73642;SDS011;61938;48.652;9.292;2023-05-10T13:03:17;3.80;;;1.40;;
73642;SDS011;61938;48.652;9.292;2023-05-10T13:05:43;3.85;;;1.30;;
73642;SDS011;61938;48.652;9.292;2023-05-10T13:08:08;2.72;;;0.90;;
73642;SDS011;61938;48.652;9.292;2023-05-10T13:10:34;7.93;;;1.20;;
73642;SDS011;61938;48.652;9.292;2023-05-10T13:13:00;1.80;;;1.05;;
73642;SDS011;61938;48.652;9.292;2023-05-10T13:15:25;2.92;;;1.02;;
73642;SDS011;61938;48.652;9.292;2023-05-10T13:17:52;3.72;;;1.10;;
73642;SDS011;61938;48.652;9.292;2023-05-10T13:20:18;3.33;;;0.95;;
73642;SDS011;61938;48.652;9.292;2023-05-10T13:22:44;2.05;;;0.90;;
73642;SDS011;61938;48.652;9.292;2023-05-10T13:25:10;2.08;;;0.98;;
73642;SDS011;61938;48.652;9.292;2023-05-10T13:27:36;1.92;;;0.95;;
73642;SDS011;61938;48.652;9.292;2023-05-10T13:30:02;5.72;;;1.40;;
73642;SDS011;61938;48.652;9.292;2023-05-10T13:32:29;1.60;;;0.75;;
73642;SDS011;61938;48.652;9.292;2023-05-10T13:34:55;5.03;;;1.02;;
73642;SDS011;61938;48.652;9.292;2023-05-10T13:37:21;2.38;;;1.20;;
73642;SDS011;61938;48.652;9.292;2023-05-10T13:39:46;1.65;;;1.00;;
73642;SDS011;61938;48.652;9.292;2023-05-10T13:42:12;4.00;;;1.10;;
73642;SDS011;61938;48.652;9.292;2023-05-10T13:44:38;2.47;;;1.30;;
73642;SDS011;61938;48.652;9.292;2023-05-10T13:47:04;2.30;;;0.85;;
73642;SDS011;61938;48.652;9.292;2023-05-10T13:49:30;7.32;;;1.00;;
73642;SDS011;61938;48.652;9.292;2023-05-10T13:51:55;2.58;;;1.20;;
73642;SDS011;61938;48.652;9.292;2023-05-10T13:54:21;2.17;;;1.50;;
73642;SDS011;61938;48.652;9.292;2023-05-10T13:56:47;4.43;;;1.10;;
73642;SDS011;61938;48.652;9.292;2023-05-10T13:59:13;1.75;;;0.88;;
73642;SDS011;61938;48.652;9.292;2023-05-10T14:01:39;6.57;;;1.50;;
73642;SDS011;61938;48.652;9.292;2023-05-10T14:04:05;0.95;;;0.60;;
73642;SDS011;61938;48.652;9.292;2023-05-10T14:06:31;2.63;;;1.23;;
73642;SDS011;61938;48.652;9.292;2023-05-10T14:08:57;3.50;;;1.10;;
73642;SDS011;61938;48.652;9.292;2023-05-10T14:11:23;4.30;;;1.42;;
73642;SDS011;61938;48.652;9.292;2023-05-10T14:13:48;8.73;;;1.20;;
73642;SDS011;61938;48.652;9.292;2023-05-10T14:16:17;1.65;;;0.98;;
73642;SDS011;61938;48.652;9.292;2023-05-10T14:18:43;4.88;;;0.93;;
73642;SDS011;61938;48.652;9.292;2023-05-10T14:21:08;5.43;;;1.20;;
73642;SDS011;61938;48.652;9.292;2023-05-10T14:23:34;5.68;;;1.10;;
73642;SDS011;61938;48.652;9.292;2023-05-10T14:25:59;3.42;;;1.10;;
73642;SDS011;61938;48.652;9.292;2023-05-10T14:28:25;4.32;;;0.98;;
73642;SDS011;61938;48.652;9.292;2023-05-10T14:30:50;3.28;;;1.30;;
73642;SDS011;61938;48.652;9.292;2023-05-10T14:33:16;3.53;;;1.20;;
73642;SDS011;61938;48.652;9.292;2023-05-10T14:35:42;6.43;;;1.13;;
73642;SDS011;61938;48.652;9.292;2023-05-10T14:38:07;3.63;;;1.13;;
73642;SDS011;61938;48.652;9.292;2023-05-10T14:40:33;4.05;;;1.20;;
73642;SDS011;61938;48.652;9.292;2023-05-10T14:42:59;3.20;;;1.27;;
73642;SDS011;61938;48.652;9.292;2023-05-10T14:45:25;3.28;;;1.02;;
73642;SDS011;61938;48.652;9.292;2023-05-10T14:47:50;2.45;;;1.08;;
73642;SDS011;61938;48.652;9.292;2023-05-10T14:50:16;2.17;;;0.95;;
73642;SDS011;61938;48.652;9.292;2023-05-10T14:52:42;4.18;;;1.00;;
73642;SDS011;61938;48.652;9.292;2023-05-10T14:55:08;5.75;;;1.25;;
73642;SDS011;61938;48.652;9.292;2023-05-10T14:57:37;5.88;;;1.30;;
73642;SDS011;61938;48.652;9.292;2023-05-10T15:00:03;6.75;;;1.45;;
73642;SDS011;61938;48.652;9.292;2023-05-10T15:02:30;3.13;;;1.15;;
73642;SDS011;61938;48.652;9.292;2023-05-10T15:04:56;5.00;;;1.15;;
73642;SDS011;61938;48.652;9.292;2023-05-10T15:07:22;9.02;;;1.48;;
73642;SDS011;61938;48.652;9.292;2023-05-10T15:09:48;2.55;;;1.00;;
73642;SDS011;61938;48.652;9.292;2023-05-10T15:12:14;2.72;;;1.20;;